Track Боревич Александр

Time Latitude Longitude Accuracy (66% radius in meters) Altitude (meters) Speed (km/hour) Bearing (degrees) Battery (%) GPS flag
09:48:28 60.370779 29.556706 0 0 0 0 1 delete
09:48:23 60.370673 29.556857 0 0 0 0 1 delete
09:48:21 60.370595 29.557041 0 0 0 0 1 delete
09:48:18 60.370587 29.557380 0 0 0 0 1 delete
09:48:16 60.370709 29.557432 0 0 0 0 1 delete
09:48:13 60.370882 29.557224 0 0 0 0 1 delete
09:48:11 60.371011 29.557061 0 0 0 0 1 delete
09:48:09 60.371158 29.556990 0 0 0 0 1 delete
09:48:07 60.371303 29.557032 0 0 0 0 1 delete
09:48:04 60.371494 29.557153 0 0 0 0 1 delete
09:48:01 60.371664 29.557373 0 0 0 0 1 delete
09:47:59 60.371743 29.557573 0 0 0 0 1 delete
09:47:54 60.371867 29.558061 0 0 0 0 1 delete
09:47:48 60.371949 29.558446 0 0 0 0 1 delete
09:47:42 60.372106 29.559268 0 0 0 0 1 delete
09:47:36 60.372263 29.560140 0 0 0 0 1 delete
09:47:34 60.372284 29.560449 0 0 0 0 1 delete
09:47:31 60.372187 29.560879 0 0 0 0 1 delete
09:47:29 60.372109 29.561120 0 0 0 0 1 delete
09:47:27 60.372009 29.561302 0 0 0 0 1 delete
09:47:24 60.371855 29.561447 0 0 0 0 1 delete
09:47:22 60.371763 29.561564 0 0 0 0 1 delete
09:47:20 60.371688 29.561745 0 0 0 0 1 delete
09:47:18 60.371641 29.561976 0 0 0 0 1 delete
09:47:12 60.371522 29.562611 0 0 0 0 1 delete
09:47:06 60.371366 29.563151 0 0 0 0 1 delete
09:47:04 60.371338 29.563328 0 0 0 0 1 delete
09:46:58 60.371321 29.563879 0 0 0 0 1 delete
09:46:55 60.371311 29.564168 0 0 0 0 1 delete
09:46:52 60.371346 29.564431 0 0 0 0 1 delete
09:46:50 60.371371 29.564602 0 0 0 0 1 delete
09:46:44 60.371450 29.565089 0 0 0 0 1 delete
09:46:38 60.371372 29.565549 0 0 0 0 1 delete
09:46:32 60.371366 29.566186 0 0 0 0 1 delete
09:46:31 60.371372 29.566275 0 0 0 0 1 delete
09:46:25 60.371464 29.566686 0 0 0 0 1 delete
09:46:23 60.371479 29.566792 0 0 0 0 1 delete
09:46:22 60.371467 29.566864 0 0 0 0 1 delete
09:46:16 60.371297 29.567242 0 0 0 0 1 delete
09:46:13 60.371231 29.567455 0 0 0 0 1 delete
09:46:07 60.371209 29.567900 0 0 0 0 1 delete
09:46:03 60.371331 29.568140 0 0 0 0 1 delete
09:46:01 60.371395 29.568253 0 0 0 0 1 delete
09:45:59 60.371469 29.568373 0 0 0 0 1 delete
09:45:53 60.371722 29.568757 0 0 0 0 1 delete
09:45:47 60.371930 29.569103 0 0 0 0 1 delete
09:45:41 60.372122 29.569435 0 0 0 0 1 delete
09:45:35 60.372308 29.569737 0 0 0 0 1 delete
09:45:29 60.372489 29.570030 0 0 0 0 1 delete
09:45:23 60.372643 29.570247 0 0 0 0 1 delete